Time;durP1;ratioP1;P1;durP2;ratioP2;P2;SDS_P1;SDS_P2;PMS_P1;PMS_P2;Temp;Humidity;BMP_temperature;BMP_pressure;BME280_temperature;BME280_humidity;BME280_pressure;Samples;Min_cycle;Max_cycle;Signal;HPM_P1;HPM_P2
2023/02/25 00:02:00;;;;;;;9.57;3.30;;;;;;;;;;5075424;28;20199;-68
2023/02/25 00:04:28;;;;;;;10.05;3.42;;;;;;;;;;5075781;28;20189;-69
2023/02/25 00:06:55;;;;;;;6.72;2.50;;;;;;;;;;5075100;28;20222;-68
2023/02/25 00:09:22;;;;;;;5.68;3.03;;;;;;;;;;5074969;28;20191;-68
2023/02/25 00:11:49;;;;;;;9.10;2.67;;;;;;;;;;5074855;28;20203;-67
2023/02/25 00:14:16;;;;;;;12.68;3.63;;;;;;;;;;5075278;28;20200;-67
2023/02/25 00:16:44;;;;;;;10.32;2.85;;;;;;;;;;5075082;28;20190;-67
2023/02/25 00:19:12;;;;;;;13.98;2.85;;;;;;;;;;5075109;28;20205;-68
2023/02/25 00:21:40;;;;;;;15.80;4.43;;;;;;;;;;5074667;28;20647;-68
2023/02/25 00:24:07;;;;;;;13.98;3.28;;;;;;;;;;5075012;28;20364;-67
2023/02/25 00:26:34;;;;;;;7.93;2.33;;;;;;;;;;5074901;28;20187;-68
2023/02/25 00:29:01;;;;;;;12.25;3.45;;;;;;;;;;5075061;28;20196;-68
2023/02/25 00:31:29;;;;;;;15.48;2.47;;;;;;;;;;5074863;28;20192;-67
2023/02/25 00:33:56;;;;;;;7.15;3.13;;;;;;;;;;5074914;28;20225;-68
2023/02/25 00:36:25;;;;;;;12.40;3.08;;;;;;;;;;5074627;28;20678;-67
2023/02/25 00:38:53;;;;;;;8.50;3.30;;;;;;;;;;5074728;28;20188;-68
2023/02/25 00:41:21;;;;;;;20.10;3.70;;;;;;;;;;5074553;28;20192;-68
2023/02/25 00:43:50;;;;;;;12.32;2.80;;;;;;;;;;5074543;28;20208;-67
2023/02/25 00:46:17;;;;;;;19.02;3.20;;;;;;;;;;5074162;28;20201;-68
2023/02/25 00:48:44;;;;;;;31.27;4.05;;;;;;;;;;5074182;28;20193;-68
2023/02/25 00:51:13;;;;;;;9.73;3.47;;;;;;;;;;5074071;28;20275;-68
2023/02/25 00:53:41;;;;;;;12.02;3.92;;;;;;;;;;5074325;28;20210;-68
2023/02/25 00:56:09;;;;;;;20.80;3.35;;;;;;;;;;5074363;28;20550;-68
2023/02/25 00:58:37;;;;;;;9.50;2.92;;;;;;;;;;5074033;28;20197;-68
2023/02/25 01:01:05;;;;;;;12.20;3.45;;;;;;;;;;5073969;28;20669;-68
2023/02/25 01:03:33;;;;;;;17.13;3.08;;;;;;;;;;5074416;28;20194;-68
2023/02/25 01:06:01;;;;;;;14.40;3.97;;;;;;;;;;5074250;28;20221;-68
2023/02/25 01:08:29;;;;;;;13.57;2.72;;;;;;;;;;5073559;28;20548;-68
2023/02/25 01:10:57;;;;;;;11.98;3.35;;;;;;;;;;5074110;28;20544;-68
2023/02/25 01:13:24;;;;;;;11.82;2.63;;;;;;;;;;5074522;28;20222;-68
2023/02/25 01:15:51;;;;;;;22.02;3.15;;;;;;;;;;5074011;28;20186;-68
2023/02/25 01:18:19;;;;;;;16.33;3.10;;;;;;;;;;5073997;28;20196;-68
2023/02/25 01:20:47;;;;;;;4.05;2.70;;;;;;;;;;5073511;28;20293;-68
2023/02/25 01:23:14;;;;;;;11.98;3.10;;;;;;;;;;5073953;28;20193;-68
2023/02/25 01:25:41;;;;;;;14.02;3.30;;;;;;;;;;5073834;28;20215;-68
2023/02/25 01:28:09;;;;;;;9.65;3.17;;;;;;;;;;5074068;28;20203;-68
2023/02/25 01:30:37;;;;;;;11.43;2.65;;;;;;;;;;5073699;28;20195;-68
2023/02/25 01:33:05;;;;;;;15.15;3.13;;;;;;;;;;5073637;28;20216;-68
2023/02/25 01:35:32;;;;;;;10.82;3.70;;;;;;;;;;5073297;28;20192;-69
2023/02/25 01:37:59;;;;;;;9.68;2.78;;;;;;;;;;5073435;28;20202;-69
2023/02/25 01:40:26;;;;;;;7.32;2.20;;;;;;;;;;5073407;28;20641;-68
2023/02/25 01:42:53;;;;;;;8.27;3.05;;;;;;;;;;5073557;28;20203;-68
2023/02/25 01:45:32;;;;;;;18.95;3.60;;;;;;;;;;5073752;28;20189;-68
2023/02/25 01:48:02;;;;;;;15.23;3.22;;;;;;;;;;5073396;28;20246;-67
2023/02/25 01:50:34;;;;;;;16.13;3.85;;;;;;;;;;5073929;28;20205;-68
2023/02/25 01:53:02;;;;;;;14.25;3.10;;;;;;;;;;5073131;28;20258;-68
2023/02/25 01:55:30;;;;;;;21.90;3.38;;;;;;;;;;5073492;28;20197;-68
2023/02/25 01:57:57;;;;;;;13.52;3.05;;;;;;;;;;5073476;28;20197;-69
2023/02/25 02:00:27;;;;;;;19.23;3.72;;;;;;;;;;5073197;28;20197;-68
2023/02/25 02:02:56;;;;;;;12.05;3.22;;;;;;;;;;5073016;28;20192;-68
2023/02/25 02:05:26;;;;;;;6.15;3.35;;;;;;;;;;5073105;28;20220;-68
2023/02/25 02:07:53;;;;;;;19.80;2.88;;;;;;;;;;5072979;28;20199;-68
2023/02/25 02:10:20;;;;;;;9.85;3.58;;;;;;;;;;5073077;28;20198;-68
2023/02/25 02:12:48;;;;;;;14.55;2.85;;;;;;;;;;5073328;28;20211;-69
2023/02/25 02:15:16;;;;;;;9.15;2.92;;;;;;;;;;5073030;28;20193;-68
2023/02/25 02:17:45;;;;;;;12.07;3.53;;;;;;;;;;5073485;28;20192;-68
2023/02/25 02:20:19;;;;;;;11.50;3.08;;;;;;;;;;5077361;28;20195;-68
2023/02/25 02:22:55;;;;;;;10.90;2.90;;;;;;;;;;5077037;28;20192;-68
2023/02/25 02:25:51;;;;;;;12.07;3.28;;;;;;;;;;5077815;28;20198;-68
2023/02/25 02:28:37;;;;;;;8.95;2.88;;;;;;;;;;5077269;28;20178;-68
2023/02/25 02:31:13;;;;;;;16.77;3.70;;;;;;;;;;5077501;28;20175;-68
2023/02/25 02:33:45;;;;;;;11.85;3.47;;;;;;;;;;5077176;28;20220;-69
2023/02/25 02:36:17;;;;;;;10.65;2.58;;;;;;;;;;5076889;28;20180;-68
2023/02/25 02:38:48;;;;;;;9.32;3.67;;;;;;;;;;5077440;28;20228;-68
2023/02/25 02:41:18;;;;;;;15.80;4.40;;;;;;;;;;5076605;28;20181;-67
2023/02/25 02:43:48;;;;;;;13.98;3.42;;;;;;;;;;5076931;28;20194;-67
2023/02/25 02:46:20;;;;;;;14.35;5.25;;;;;;;;;;5076621;28;20193;-68
2023/02/25 02:48:51;;;;;;;12.75;2.85;;;;;;;;;;5076867;28;20193;-68
2023/02/25 02:51:21;;;;;;;10.77;3.50;;;;;;;;;;5076551;28;20188;-68
2023/02/25 02:53:51;;;;;;;11.80;3.90;;;;;;;;;;5076602;28;20225;-68
2023/02/25 02:56:19;;;;;;;18.20;3.15;;;;;;;;;;5076775;28;20198;-68
2023/02/25 02:58:48;;;;;;;10.77;3.70;;;;;;;;;;5076551;28;20522;-68
2023/02/25 03:01:18;;;;;;;11.82;3.35;;;;;;;;;;5076238;28;20650;-68
2023/02/25 03:03:47;;;;;;;20.10;4.47;;;;;;;;;;5076613;28;20186;-69
2023/02/25 03:06:16;;;;;;;8.70;3.17;;;;;;;;;;5076625;28;20344;-69
2023/02/25 03:08:46;;;;;;;12.23;3.05;;;;;;;;;;5076418;28;20192;-68
2023/02/25 03:11:13;;;;;;;9.27;3.28;;;;;;;;;;5076358;28;20205;-68
2023/02/25 03:13:41;;;;;;;15.75;3.75;;;;;;;;;;5075879;28;20223;-68
2023/02/25 03:16:10;;;;;;;20.23;3.13;;;;;;;;;;5076538;28;20191;-68
2023/02/25 03:18:42;;;;;;;11.00;3.20;;;;;;;;;;5076286;28;20193;-69
2023/02/25 03:21:13;;;;;;;17.75;3.83;;;;;;;;;;5076529;28;20522;-69
2023/02/25 03:23:42;;;;;;;10.70;3.38;;;;;;;;;;5076345;28;20190;-68
2023/02/25 03:26:12;;;;;;;12.55;3.97;;;;;;;;;;5076265;28;20197;-69
2023/02/25 03:28:41;;;;;;;18.42;4.35;;;;;;;;;;5075784;28;20181;-69
2023/02/25 03:31:10;;;;;;;7.82;3.10;;;;;;;;;;5075730;28;20197;-68
2023/02/25 03:33:46;;;;;;;13.82;3.58;;;;;;;;;;5075605;28;20660;-68
2023/02/25 03:36:15;;;;;;;18.23;3.08;;;;;;;;;;5075691;28;20638;-68
2023/02/25 03:38:44;;;;;;;20.77;4.53;;;;;;;;;;5075867;28;20187;-68
2023/02/25 03:41:11;;;;;;;14.70;3.60;;;;;;;;;;5075948;28;20219;-68
2023/02/25 03:43:41;;;;;;;17.10;4.65;;;;;;;;;;5075965;28;20205;-68
2023/02/25 03:46:08;;;;;;;21.63;4.03;;;;;;;;;;5075489;28;20197;-68
2023/02/25 03:48:37;;;;;;;8.45;3.28;;;;;;;;;;5075644;28;20537;-68
2023/02/25 03:51:06;;;;;;;9.82;3.38;;;;;;;;;;5075766;28;20535;-69
2023/02/25 03:53:35;;;;;;;12.98;3.22;;;;;;;;;;5075173;28;20215;-68
2023/02/25 03:56:05;;;;;;;9.05;3.13;;;;;;;;;;5075614;28;20189;-68
2023/02/25 03:58:32;;;;;;;15.80;3.35;;;;;;;;;;5075449;28;20244;-68
2023/02/25 04:01:01;;;;;;;24.60;6.70;;;;;;;;;;5075220;28;20197;-68
2023/02/25 04:03:28;;;;;;;13.63;3.42;;;;;;;;;;5075166;28;20195;-68
2023/02/25 04:05:55;;;;;;;11.43;2.55;;;;;;;;;;5075496;28;20241;-69
2023/02/25 04:08:24;;;;;;;20.33;4.53;;;;;;;;;;5075333;28;20215;-69
2023/02/25 04:10:51;;;;;;;14.45;2.58;;;;;;;;;;5075032;28;20192;-69
2023/02/25 04:13:19;;;;;;;12.32;4.00;;;;;;;;;;5074842;28;20200;-69
2023/02/25 04:15:47;;;;;;;18.30;4.07;;;;;;;;;;5074955;28;20641;-69
2023/02/25 04:18:14;;;;;;;19.10;3.50;;;;;;;;;;5075151;28;20192;-68
2023/02/25 04:20:41;;;;;;;18.48;4.00;;;;;;;;;;5075125;28;20195;-68
2023/02/25 04:23:09;;;;;;;13.48;3.28;;;;;;;;;;5075063;28;20194;-68
2023/02/25 04:25:37;;;;;;;9.20;2.90;;;;;;;;;;5075174;28;20210;-68
2023/02/25 04:28:05;;;;;;;15.55;3.85;;;;;;;;;;5075101;28;20190;-68
2023/02/25 04:30:32;;;;;;;15.90;3.70;;;;;;;;;;5074617;28;20195;-69
2023/02/25 04:32:59;;;;;;;10.15;3.85;;;;;;;;;;5074473;28;20196;-68
2023/02/25 04:35:26;;;;;;;9.25;3.70;;;;;;;;;;5074540;28;20224;-68
2023/02/25 04:37:54;;;;;;;11.00;3.60;;;;;;;;;;5074459;28;20194;-70
2023/02/25 04:40:22;;;;;;;13.85;3.83;;;;;;;;;;5074483;28;20656;-68
2023/02/25 04:42:51;;;;;;;14.85;4.30;;;;;;;;;;5074334;28;20247;-67
2023/02/25 04:45:19;;;;;;;16.80;4.00;;;;;;;;;;5074594;28;20200;-67
2023/02/25 04:47:46;;;;;;;17.65;3.72;;;;;;;;;;5074829;28;20601;-67
2023/02/25 04:50:13;;;;;;;15.98;4.30;;;;;;;;;;5074528;28;20200;-67
2023/02/25 04:52:41;;;;;;;17.55;3.97;;;;;;;;;;5074212;28;20196;-67
2023/02/25 04:55:09;;;;;;;27.25;4.03;;;;;;;;;;5052409;28;20560;-68
2023/02/25 04:57:41;;;;;;;16.75;4.10;;;;;;;;;;5053316;28;20260;-68
2023/02/25 05:00:15;;;;;;;25.40;4.30;;;;;;;;;;5053743;28;20511;-67
2023/02/25 05:02:42;;;;;;;27.48;4.28;;;;;;;;;;5053327;28;20192;-68
2023/02/25 05:05:09;;;;;;;13.27;3.55;;;;;;;;;;5052751;28;20324;-68
2023/02/25 05:07:37;;;;;;;15.57;3.47;;;;;;;;;;5053603;28;20194;-68
2023/02/25 05:10:05;;;;;;;18.80;3.03;;;;;;;;;;5053317;28;20200;-67
2023/02/25 05:12:32;;;;;;;18.67;3.13;;;;;;;;;;5053118;28;20189;-67
2023/02/25 05:15:02;;;;;;;17.40;3.63;;;;;;;;;;5053544;28;20224;-68
2023/02/25 05:17:31;;;;;;;20.42;3.25;;;;;;;;;;5053286;28;20189;-68
2023/02/25 05:19:58;;;;;;;21.40;3.83;;;;;;;;;;5053986;28;20197;-67
2023/02/25 05:22:26;;;;;;;25.38;4.47;;;;;;;;;;5054052;28;20197;-67
2023/02/25 05:24:54;;;;;;;14.63;3.53;;;;;;;;;;5053368;28;20209;-67
2023/02/25 05:27:21;;;;;;;19.38;4.60;;;;;;;;;;5053744;28;20201;-67
2023/02/25 05:29:50;;;;;;;24.25;4.20;;;;;;;;;;5052999;28;20602;-68
2023/02/25 05:32:17;;;;;;;13.82;3.67;;;;;;;;;;5053249;28;20192;-67
2023/02/25 05:34:46;;;;;;;20.63;4.80;;;;;;;;;;5052651;28;20686;-67
2023/02/25 05:37:13;;;;;;;19.10;3.22;;;;;;;;;;5052951;28;20200;-68
2023/02/25 05:39:40;;;;;;;22.83;3.97;;;;;;;;;;5053308;28;20287;-67
2023/02/25 05:42:08;;;;;;;22.77;3.92;;;;;;;;;;5053726;28;20193;-67
2023/02/25 05:44:35;;;;;;;14.90;2.65;;;;;;;;;;5053635;28;20200;-67
2023/02/25 05:47:02;;;;;;;21.17;3.90;;;;;;;;;;5053501;28;20193;-68
2023/02/25 05:49:29;;;;;;;20.00;3.60;;;;;;;;;;5052693;28;20667;-68
2023/02/25 05:51:58;;;;;;;19.05;4.35;;;;;;;;;;5053508;28;20191;-67
2023/02/25 05:54:25;;;;;;;26.05;4.03;;;;;;;;;;5065636;28;20213;-67
2023/02/25 05:56:52;;;;;;;17.80;4.22;;;;;;;;;;5072463;28;20236;-67
2023/02/25 05:59:20;;;;;;;18.80;4.85;;;;;;;;;;5073208;28;20191;-67
2023/02/25 06:01:47;;;;;;;20.40;4.00;;;;;;;;;;5073090;28;20190;-67
2023/02/25 06:04:14;;;;;;;11.93;3.03;;;;;;;;;;5072732;28;20205;-67
2023/02/25 06:06:41;;;;;;;16.65;4.07;;;;;;;;;;5067524;28;20732;-67
2023/02/25 06:09:10;;;;;;;17.45;3.33;;;;;;;;;;5052540;28;20655;-67
2023/02/25 06:11:37;;;;;;;16.08;3.15;;;;;;;;;;5052869;28;20198;-67
2023/02/25 06:14:04;;;;;;;22.13;4.22;;;;;;;;;;5053147;28;20228;-67
2023/02/25 06:16:32;;;;;;;26.58;3.47;;;;;;;;;;5052684;28;20199;-67
2023/02/25 06:19:00;;;;;;;21.83;3.50;;;;;;;;;;5052814;28;20193;-67
2023/02/25 06:21:27;;;;;;;21.25;4.28;;;;;;;;;;5052686;28;20194;-67
2023/02/25 06:23:54;;;;;;;22.02;5.07;;;;;;;;;;5052651;28;20195;-67
2023/02/25 06:26:23;;;;;;;12.25;3.20;;;;;;;;;;5053144;28;20545;-67
2023/02/25 06:28:50;;;;;;;12.38;3.38;;;;;;;;;;5052695;28;20203;-67
2023/02/25 06:31:18;;;;;;;25.27;5.07;;;;;;;;;;5052814;28;20204;-67
2023/02/25 06:33:45;;;;;;;18.17;3.67;;;;;;;;;;5052592;28;20206;-67
2023/02/25 06:36:13;;;;;;;22.55;3.70;;;;;;;;;;5052705;28;20192;-67
2023/02/25 06:38:41;;;;;;;19.17;3.95;;;;;;;;;;5052733;28;20200;-67
2023/02/25 06:41:09;;;;;;;13.93;4.10;;;;;;;;;;5052845;28;20620;-67
2023/02/25 06:43:38;;;;;;;31.85;5.45;;;;;;;;;;5052944;28;20196;-68
2023/02/25 06:46:07;;;;;;;14.40;4.03;;;;;;;;;;5052767;28;20194;-67
2023/02/25 06:48:34;;;;;;;25.73;4.00;;;;;;;;;;5052701;28;20196;-67
2023/02/25 06:51:01;;;;;;;18.92;5.10;;;;;;;;;;5052083;28;20656;-67
2023/02/25 06:53:29;;;;;;;21.15;4.70;;;;;;;;;;5052469;28;20193;-68
2023/02/25 06:55:56;;;;;;;14.60;2.92;;;;;;;;;;5052276;28;20216;-67
2023/02/25 06:58:23;;;;;;;4.45;2.30;;;;;;;;;;5052014;28;20198;-67
2023/02/25 07:00:51;;;;;;;11.27;3.35;;;;;;;;;;5052308;28;20208;-68
2023/02/25 07:03:19;;;;;;;8.60;1.70;;;;;;;;;;5052734;28;20193;-67
2023/02/25 07:05:46;;;;;;;5.75;1.60;;;;;;;;;;5054434;28;20224;-68
2023/02/25 07:08:13;;;;;;;3.17;1.45;;;;;;;;;;5056327;28;20193;-68
2023/02/25 07:10:40;;;;;;;2.70;1.52;;;;;;;;;;5055919;28;20194;-67
2023/02/25 07:13:07;;;;;;;1.90;1.55;;;;;;;;;;5055967;28;20234;-68
2023/02/25 07:15:35;;;;;;;6.20;1.70;;;;;;;;;;5055802;28;20222;-68
2023/02/25 07:18:04;;;;;;;2.50;1.98;;;;;;;;;;5055731;28;20190;-67
2023/02/25 07:20:31;;;;;;;1.92;1.25;;;;;;;;;;5056061;28;20563;-68
2023/02/25 07:22:58;;;;;;;5.50;1.50;;;;;;;;;;5055956;28;20195;-68
2023/02/25 07:25:25;;;;;;;3.45;1.45;;;;;;;;;;5055776;28;20201;-68
2023/02/25 07:27:53;;;;;;;4.60;1.73;;;;;;;;;;5055893;28;20201;-67
2023/02/25 07:30:21;;;;;;;3.28;1.40;;;;;;;;;;5055608;28;20198;-69
2023/02/25 07:32:48;;;;;;;1.50;1.40;;;;;;;;;;5055298;28;20194;-68
2023/02/25 07:35:16;;;;;;;1.75;1.20;;;;;;;;;;5055376;28;20630;-70
2023/02/25 07:37:43;;;;;;;5.13;1.70;;;;;;;;;;5054896;28;20663;-66
2023/02/25 07:40:12;;;;;;;5.07;1.73;;;;;;;;;;5055348;28;20352;-66
2023/02/25 07:42:40;;;;;;;1.90;1.30;;;;;;;;;;5055175;28;20216;-66
2023/02/25 07:45:08;;;;;;;1.38;1.27;;;;;;;;;;5055699;28;20202;-66
2023/02/25 07:47:36;;;;;;;4.30;1.55;;;;;;;;;;5055298;28;20650;-66
2023/02/25 07:50:03;;;;;;;9.45;2.05;;;;;;;;;;5054599;28;20643;-66
2023/02/25 07:52:32;;;;;;;6.25;2.70;;;;;;;;;;5055344;28;20223;-66
2023/02/25 07:54:59;;;;;;;9.05;2.17;;;;;;;;;;5054992;28;20235;-66
2023/02/25 07:57:26;;;;;;;4.70;2.20;;;;;;;;;;5054962;28;20539;-66
2023/02/25 07:59:53;;;;;;;8.45;2.63;;;;;;;;;;5055240;28;20189;-66
2023/02/25 08:02:21;;;;;;;7.03;2.45;;;;;;;;;;5055597;28;20197;-66
2023/02/25 08:04:48;;;;;;;6.45;3.25;;;;;;;;;;5054965;28;20225;-67
2023/02/25 08:07:16;;;;;;;6.45;2.78;;;;;;;;;;5055618;28;20587;-65
2023/02/25 08:09:44;;;;;;;6.47;2.60;;;;;;;;;;5054825;28;20545;-66
2023/02/25 08:12:11;;;;;;;10.93;2.58;;;;;;;;;;5054897;28;20201;-66
2023/02/25 08:14:39;;;;;;;10.95;3.35;;;;;;;;;;5054924;28;20233;-66
2023/02/25 08:17:06;;;;;;;6.68;2.30;;;;;;;;;;5054253;28;20655;-66
2023/02/25 08:19:33;;;;;;;5.80;2.20;;;;;;;;;;5054260;28;20195;-66
2023/02/25 08:22:00;;;;;;;11.82;2.97;;;;;;;;;;5054905;28;20633;-65
2023/02/25 08:24:27;;;;;;;6.15;2.60;;;;;;;;;;5054997;28;20191;-67
2023/02/25 08:26:56;;;;;;;9.05;2.67;;;;;;;;;;5054530;28;20201;-69
2023/02/25 08:29:23;;;;;;;9.77;2.88;;;;;;;;;;5054475;28;20191;-69
2023/02/25 08:31:51;;;;;;;9.25;3.22;;;;;;;;;;5054695;28;20202;-69
2023/02/25 08:34:18;;;;;;;13.15;3.22;;;;;;;;;;5054558;28;20195;-68
2023/02/25 08:36:45;;;;;;;7.03;2.65;;;;;;;;;;5054058;28;20229;-70
2023/02/25 08:39:12;;;;;;;5.07;2.65;;;;;;;;;;5054206;28;20195;-72
2023/02/25 08:41:39;;;;;;;6.47;2.30;;;;;;;;;;5054331;28;20194;-72
2023/02/25 08:44:08;;;;;;;9.15;3.10;;;;;;;;;;5054682;28;20221;-69
2023/02/25 08:46:36;;;;;;;5.65;2.20;;;;;;;;;;5054521;28;20330;-69
2023/02/25 08:49:04;;;;;;;9.05;2.20;;;;;;;;;;5054578;28;20194;-69
2023/02/25 08:51:33;;;;;;;7.90;2.50;;;;;;;;;;5054637;28;20228;-68
2023/02/25 08:54:02;;;;;;;7.22;2.10;;;;;;;;;;5051951;28;20277;-69
2023/02/25 08:56:29;;;;;;;16.08;2.70;;;;;;;;;;5053838;28;20595;-69
2023/02/25 08:58:56;;;;;;;6.57;2.20;;;;;;;;;;5053533;28;20187;-68
2023/02/25 09:01:26;;;;;;;4.13;1.85;;;;;;;;;;5053809;28;20204;-68
2023/02/25 09:03:56;;;;;;;4.82;2.22;;;;;;;;;;5054369;28;20194;-68
2023/02/25 09:06:25;;;;;;;7.65;2.55;;;;;;;;;;5053654;28;20234;-69
2023/02/25 09:08:53;;;;;;;8.00;2.17;;;;;;;;;;5054123;28;20587;-69
2023/02/25 09:11:21;;;;;;;11.60;2.28;;;;;;;;;;5054090;28;20603;-68
2023/02/25 09:13:48;;;;;;;6.45;2.28;;;;;;;;;;5053867;28;20187;-69
2023/02/25 09:16:16;;;;;;;11.45;2.35;;;;;;;;;;5053656;28;20264;-70
2023/02/25 09:18:45;;;;;;;6.00;2.88;;;;;;;;;;5053243;28;20197;-69
2023/02/25 09:21:12;;;;;;;7.28;3.40;;;;;;;;;;5053473;28;20205;-69
2023/02/25 09:23:40;;;;;;;6.32;2.33;;;;;;;;;;5053700;28;20200;-68
2023/02/25 09:26:07;;;;;;;9.30;2.47;;;;;;;;;;5053615;28;20221;-68
2023/02/25 09:28:35;;;;;;;7.88;2.25;;;;;;;;;;5052877;28;20194;-68
2023/02/25 09:31:02;;;;;;;7.60;2.22;;;;;;;;;;5053532;28;20211;-68
2023/02/25 09:33:31;;;;;;;9.48;2.25;;;;;;;;;;5053604;28;20285;-69
2023/02/25 09:36:06;;;;;;;3.45;1.90;;;;;;;;;;5053460;28;20580;-69
2023/02/25 09:38:33;;;;;;;6.70;2.83;;;;;;;;;;5052729;28;20643;-68
2023/02/25 09:41:00;;;;;;;7.13;1.75;;;;;;;;;;5053188;28;20201;-68
2023/02/25 09:43:29;;;;;;;5.88;2.95;;;;;;;;;;5053147;28;20248;-68
2023/02/25 09:46:00;;;;;;;5.18;2.20;;;;;;;;;;5053538;28;20201;-68
2023/02/25 09:48:29;;;;;;;7.75;3.65;;;;;;;;;;5053405;28;20200;-68
2023/02/25 09:51:00;;;;;;;9.48;2.92;;;;;;;;;;5053166;28;20200;-68
2023/02/25 09:53:32;;;;;;;3.55;1.80;;;;;;;;;;5053172;28;20599;-68
2023/02/25 09:56:01;;;;;;;5.00;2.80;;;;;;;;;;5053474;28;20201;-68
2023/02/25 09:58:34;;;;;;;7.68;2.17;;;;;;;;;;5052857;28;20201;-68
2023/02/25 10:01:04;;;;;;;9.15;2.20;;;;;;;;;;5053174;28;20183;-67
2023/02/25 10:03:40;;;;;;;6.75;2.33;;;;;;;;;;5053363;28;20329;-67
2023/02/25 10:06:10;;;;;;;4.30;2.05;;;;;;;;;;5053290;28;20229;-67
2023/02/25 10:08:44;;;;;;;6.70;3.28;;;;;;;;;;5052849;28;20188;-66
2023/02/25 10:11:13;;;;;;;4.05;2.13;;;;;;;;;;5053422;28;20585;-66
2023/02/25 10:13:46;;;;;;;5.85;2.13;;;;;;;;;;5052752;28;20288;-67
2023/02/25 10:16:23;;;;;;;11.18;2.67;;;;;;;;;;5053087;28;20212;-67
2023/02/25 10:19:05;;;;;;;3.55;1.60;;;;;;;;;;5052656;28;20536;-67
2023/02/25 10:21:42;;;;;;;5.45;2.40;;;;;;;;;;5053098;28;20517;-67
2023/02/25 10:24:16;;;;;;;4.72;1.73;;;;;;;;;;5053000;28;20220;-67
2023/02/25 10:26:46;;;;;;;9.10;2.53;;;;;;;;;;5053353;28;20194;-67
2023/02/25 10:29:15;;;;;;;6.20;2.20;;;;;;;;;;5052930;28;20197;-67
2023/02/25 10:31:44;;;;;;;3.10;1.45;;;;;;;;;;5053420;28;20550;-66
2023/02/25 10:34:17;;;;;;;9.05;2.30;;;;;;;;;;5052469;28;20570;-67
2023/02/25 10:36:46;;;;;;;15.43;3.00;;;;;;;;;;5052840;28;20206;-67
2023/02/25 10:39:15;;;;;;;8.02;1.88;;;;;;;;;;5052266;28;20198;-66
2023/02/25 10:41:42;;;;;;;7.50;2.08;;;;;;;;;;5055998;28;20660;-67
2023/02/25 10:44:10;;;;;;;7.30;1.70;;;;;;;;;;5056909;28;20194;-67
2023/02/25 10:46:40;;;;;;;10.10;1.90;;;;;;;;;;5056725;28;20283;-67
2023/02/25 10:49:15;;;;;;;4.28;1.92;;;;;;;;;;5057057;28;20194;-67
2023/02/25 10:51:57;;;;;;;5.97;2.13;;;;;;;;;;5056461;28;20617;-66
2023/02/25 10:54:25;;;;;;;7.28;2.10;;;;;;;;;;5056083;28;20182;-67
2023/02/25 10:56:53;;;;;;;12.43;1.90;;;;;;;;;;5056630;28;20417;-67
2023/02/25 10:59:26;;;;;;;8.52;2.05;;;;;;;;;;5056192;28;20190;-67
2023/02/25 11:01:53;;;;;;;3.75;1.98;;;;;;;;;;5056389;28;20197;-67
2023/02/25 11:04:23;;;;;;;4.55;2.05;;;;;;;;;;5055546;28;20655;-67
2023/02/25 11:06:50;;;;;;;5.95;2.97;;;;;;;;;;5056624;28;20189;-66
2023/02/25 11:09:35;;;;;;;5.80;1.80;;;;;;;;;;5056365;28;20605;-67
2023/02/25 11:12:10;;;;;;;9.95;2.05;;;;;;;;;;5056628;28;20183;-67
2023/02/25 11:14:38;;;;;;;2.30;2.10;;;;;;;;;;5056008;28;20178;-67
2023/02/25 11:17:06;;;;;;;5.20;2.90;;;;;;;;;;5055567;28;20218;-67
2023/02/25 11:19:37;;;;;;;7.03;2.08;;;;;;;;;;5055918;28;20664;-68
2023/02/25 11:22:08;;;;;;;9.23;2.08;;;;;;;;;;5055755;28;20616;-67
2023/02/25 11:24:38;;;;;;;3.85;1.63;;;;;;;;;;5056002;28;20192;-67
2023/02/25 11:27:06;;;;;;;4.65;2.22;;;;;;;;;;5056227;28;20205;-66
2023/02/25 11:29:36;;;;;;;4.43;2.13;;;;;;;;;;5055984;28;20232;-67
2023/02/25 11:32:08;;;;;;;6.43;1.70;;;;;;;;;;5056112;28;20566;-67
2023/02/25 11:34:37;;;;;;;3.95;1.95;;;;;;;;;;5055761;28;20194;-67
2023/02/25 11:37:19;;;;;;;37.20;16.25;;;;;;;;;;5055557;28;20218;-67
2023/02/25 11:39:53;;;;;;;3.65;1.80;;;;;;;;;;5055000;28;20650;-67
2023/02/25 11:42:23;;;;;;;2.47;1.65;;;;;;;;;;5055889;28;20182;-67
2023/02/25 11:44:50;;;;;;;4.10;2.20;;;;;;;;;;5055752;28;20199;-67
2023/02/25 11:47:23;;;;;;;1.50;1.40;;;;;;;;;;5054924;28;20730;-67
2023/02/25 11:50:00;;;;;;;5.47;1.70;;;;;;;;;;5055301;28;20569;-67
2023/02/25 11:52:32;;;;;;;3.10;1.50;;;;;;;;;;5055247;28;20571;-67
2023/02/25 11:55:11;;;;;;;4.75;1.40;;;;;;;;;;5055513;28;20185;-68
2023/02/25 11:57:42;;;;;;;2.85;1.42;;;;;;;;;;5055897;28;20248;-67
2023/02/25 12:00:19;;;;;;;7.72;1.67;;;;;;;;;;5055586;28;20183;-67
2023/02/25 12:02:52;;;;;;;3.20;1.55;;;;;;;;;;5055691;28;20236;-67
2023/02/25 12:05:35;;;;;;;3.28;1.50;;;;;;;;;;5055619;28;20304;-67
2023/02/25 12:08:17;;;;;;;2.55;1.48;;;;;;;;;;5055978;28;20186;-67
2023/02/25 12:10:56;;;;;;;3.20;1.85;;;;;;;;;;5055886;28;20254;-67
2023/02/25 12:13:36;;;;;;;3.20;1.50;;;;;;;;;;5055114;28;20185;-67
2023/02/25 12:16:14;;;;;;;3.20;1.60;;;;;;;;;;5055454;28;20210;-67
2023/02/25 12:18:56;;;;;;;1.92;1.23;;;;;;;;;;5055291;28;20189;-67
2023/02/25 12:21:52;;;;;;;2.40;1.40;;;;;;;;;;5055346;28;20205;-67
2023/02/25 12:24:26;;;;;;;4.30;1.40;;;;;;;;;;5055249;28;20231;-67
2023/02/25 12:27:05;;;;;;;2.40;1.45;;;;;;;;;;5055140;28;20209;-68
2023/02/25 12:29:38;;;;;;;1.60;1.30;;;;;;;;;;5055684;28;20208;-67
2023/02/25 12:32:13;;;;;;;2.38;1.70;;;;;;;;;;5055036;28;20187;-67
2023/02/25 12:34:55;;;;;;;2.35;1.30;;;;;;;;;;5054795;28;20196;-68
2023/02/25 12:37:43;;;;;;;3.47;1.95;;;;;;;;;;5034488;28;20547;-67
2023/02/25 12:40:30;;;;;;;2.65;1.25;;;;;;;;;;5055214;28;20177;-67
2023/02/25 12:43:03;;;;;;;2.92;1.60;;;;;;;;;;5054433;28;20677;-68
2023/02/25 12:45:38;;;;;;;2.85;1.20;;;;;;;;;;5055039;28;20183;-68
2023/02/25 12:48:14;;;;;;;2.00;1.33;;;;;;;;;;5054567;28;20182;-68
2023/02/25 12:50:53;;;;;;;2.08;1.55;;;;;;;;;;5054820;28;20265;-67
2023/02/25 12:53:32;;;;;;;2.50;1.30;;;;;;;;;;5054322;28;20188;-67
2023/02/25 12:56:15;;;;;;;2.15;1.95;;;;;;;;;;5054057;28;20188;-67
2023/02/25 12:58:56;;;;;;;5.03;1.83;;;;;;;;;;5054474;28;20186;-67
2023/02/25 13:01:31;;;;;;;1.17;1.08;;;;;;;;;;5054717;28;20183;-67
2023/02/25 13:04:07;;;;;;;2.05;1.40;;;;;;;;;;5053176;28;20638;-67
2023/02/25 13:07:02;;;;;;;4.78;1.55;;;;;;;;;;5054377;28;20227;-67
2023/02/25 13:09:47;;;;;;;1.98;1.50;;;;;;;;;;4996907;28;20195;-67
2023/02/25 13:12:21;;;;;;;4.30;1.40;;;;;;;;;;5053403;28;20206;-67
2023/02/25 13:14:56;;;;;;;6.00;1.40;;;;;;;;;;5054143;28;20201;-70
2023/02/25 13:17:42;;;;;;;3.90;1.60;;;;;;;;;;5054187;28;20207;-67
2023/02/25 13:20:31;;;;;;;3.17;1.75;;;;;;;;;;5054246;28;20179;-67
2023/02/25 13:23:03;;;;;;;3.28;1.65;;;;;;;;;;5054021;28;20183;-67
2023/02/25 13:25:36;;;;;;;4.90;1.33;;;;;;;;;;5053712;28;20211;-67
2023/02/25 13:28:21;;;;;;;2.13;1.40;;;;;;;;;;5052399;28;20207;-70
2023/02/25 13:30:56;;;;;;;4.53;1.60;;;;;;;;;;5053184;28;20174;-67
2023/02/25 13:33:29;;;;;;;12.25;1.80;;;;;;;;;;5053065;28;20703;-69
2023/02/25 13:36:01;;;;;;;4.25;1.42;;;;;;;;;;5053247;28;20216;-68
2023/02/25 13:38:34;;;;;;;1.30;1.20;;;;;;;;;;5052906;28;20268;-67
2023/02/25 13:41:15;;;;;;;2.00;1.40;;;;;;;;;;5052897;28;20699;-67
2023/02/25 13:44:12;;;;;;;2.50;2.13;;;;;;;;;;5052798;28;20215;-68
2023/02/25 13:46:55;;;;;;;1.45;1.10;;;;;;;;;;5052855;28;20579;-67
2023/02/25 13:49:43;;;;;;;1.85;1.48;;;;;;;;;;5053596;28;20186;-67
2023/02/25 13:52:22;;;;;;;2.47;1.48;;;;;;;;;;5012108;28;20189;-66
2023/02/25 13:54:58;;;;;;;3.17;1.40;;;;;;;;;;5053172;28;20638;-67
2023/02/25 13:57:31;;;;;;;2.95;1.60;;;;;;;;;;5053309;28;20202;-67
2023/02/25 14:00:08;;;;;;;3.22;1.60;;;;;;;;;;5053034;28;20183;-67
2023/02/25 14:02:53;;;;;;;3.55;1.95;;;;;;;;;;5052785;28;20652;-67
2023/02/25 14:05:41;;;;;;;2.70;1.48;;;;;;;;;;5052075;28;20325;-67
2023/02/25 14:08:17;;;;;;;1.65;1.52;;;;;;;;;;5045061;28;20190;-66
2023/02/25 14:10:52;;;;;;;4.88;1.60;;;;;;;;;;5053486;28;20185;-66
2023/02/25 14:13:38;;;;;;;6.38;1.80;;;;;;;;;;5053076;28;20650;-66
2023/02/25 14:16:08;;;;;;;5.15;1.83;;;;;;;;;;5057368;28;20186;-67
2023/02/25 14:18:48;;;;;;;2.47;1.73;;;;;;;;;;5057154;28;20221;-66
2023/02/25 14:21:27;;;;;;;2.83;1.45;;;;;;;;;;5057377;28;20178;-67
2023/02/25 14:24:00;;;;;;;4.63;2.00;;;;;;;;;;5056607;28;20262;-67
2023/02/25 14:26:33;;;;;;;6.07;1.88;;;;;;;;;;5056547;28;20612;-67
2023/02/25 14:29:08;;;;;;;3.92;2.00;;;;;;;;;;5057001;28;20191;-66
2023/02/25 14:31:41;;;;;;;3.85;1.33;;;;;;;;;;5057050;28;20192;-67
2023/02/25 14:34:17;;;;;;;2.13;1.38;;;;;;;;;;5056903;28;20190;-67
2023/02/25 14:36:51;;;;;;;2.38;1.42;;;;;;;;;;5056864;28;20208;-67
2023/02/25 14:39:30;;;;;;;3.95;1.48;;;;;;;;;;5057291;28;20187;-67
2023/02/25 14:42:16;;;;;;;2.85;2.65;;;;;;;;;;5056738;28;20194;-67
2023/02/25 14:44:46;;;;;;;6.53;1.65;;;;;;;;;;5056362;28;20175;-67
2023/02/25 14:47:16;;;;;;;4.45;1.48;;;;;;;;;;5056514;28;20198;-67
2023/02/25 14:49:58;;;;;;;3.10;1.90;;;;;;;;;;5056673;28;20530;-67
2023/02/25 14:52:43;;;;;;;5.90;1.80;;;;;;;;;;5055973;28;20181;-67
2023/02/25 14:55:28;;;;;;;5.75;1.73;;;;;;;;;;5055986;28;20198;-67
2023/02/25 14:58:08;;;;;;;3.65;1.55;;;;;;;;;;5055983;28;20202;-68
2023/02/25 15:00:47;;;;;;;2.05;1.20;;;;;;;;;;5056690;28;20182;-67